sensor_id;sensor_type;location;lat;lon;timestamp;temperature;humidity
11126;DHT22;5617;54.046;10.676;2023-03-01T00:01:03;0.90;99.90
11126;DHT22;5617;54.046;10.676;2023-03-01T00:03:11;0.90;99.90
11126;DHT22;5617;54.046;10.676;2023-03-01T00:05:21;0.90;99.90
11126;DHT22;5617;54.046;10.676;2023-03-01T00:07:29;0.90;99.90
11126;DHT22;5617;54.046;10.676;2023-03-01T00:09:36;0.90;99.90
11126;DHT22;5617;54.046;10.676;2023-03-01T00:11:45;0.80;99.90
11126;DHT22;5617;54.046;10.676;2023-03-01T00:13:56;0.80;99.90
11126;DHT22;5617;54.046;10.676;2023-03-01T00:16:05;0.80;99.90
11126;DHT22;5617;54.046;10.676;2023-03-01T00:18:13;0.80;99.90
11126;DHT22;5617;54.046;10.676;2023-03-01T00:20:21;0.80;99.90
11126;DHT22;5617;54.046;10.676;2023-03-01T00:22:29;0.70;99.90
11126;DHT22;5617;54.046;10.676;2023-03-01T00:24:37;0.70;99.90
11126;DHT22;5617;54.046;10.676;2023-03-01T00:26:44;0.70;99.90
11126;DHT22;5617;54.046;10.676;2023-03-01T00:28:54;0.70;99.90
11126;DHT22;5617;54.046;10.676;2023-03-01T00:31:06;0.70;99.90
11126;DHT22;5617;54.046;10.676;2023-03-01T00:33:14;0.70;99.90
11126;DHT22;5617;54.046;10.676;2023-03-01T00:35:21;0.70;99.90
11126;DHT22;5617;54.046;10.676;2023-03-01T00:37:29;0.70;99.90
11126;DHT22;5617;54.046;10.676;2023-03-01T00:39:37;0.70;99.90
11126;DHT22;5617;54.046;10.676;2023-03-01T00:41:44;0.70;99.90
11126;DHT22;5617;54.046;10.676;2023-03-01T00:43:54;0.70;99.90
11126;DHT22;5617;54.046;10.676;2023-03-01T00:46:02;0.60;99.90
11126;DHT22;5617;54.046;10.676;2023-03-01T00:48:10;0.60;99.90
11126;DHT22;5617;54.046;10.676;2023-03-01T00:50:18;0.60;99.90
11126;DHT22;5617;54.046;10.676;2023-03-01T00:52:26;0.60;99.90
11126;DHT22;5617;54.046;10.676;2023-03-01T00:54:35;0.60;99.90
11126;DHT22;5617;54.046;10.676;2023-03-01T00:56:43;0.60;99.90
11126;DHT22;5617;54.046;10.676;2023-03-01T00:58:50;0.50;99.90
11126;DHT22;5617;54.046;10.676;2023-03-01T01:01:00;0.50;99.90
11126;DHT22;5617;54.046;10.676;2023-03-01T01:03:08;0.50;99.90
11126;DHT22;5617;54.046;10.676;2023-03-01T01:05:16;0.40;99.90
11126;DHT22;5617;54.046;10.676;2023-03-01T01:07:27;0.40;99.90
11126;DHT22;5617;54.046;10.676;2023-03-01T01:09:34;0.40;99.90
11126;DHT22;5617;54.046;10.676;2023-03-01T01:11:43;0.40;99.90
11126;DHT22;5617;54.046;10.676;2023-03-01T01:13:51;0.40;99.90
11126;DHT22;5617;54.046;10.676;2023-03-01T01:16:02;0.40;99.90
11126;DHT22;5617;54.046;10.676;2023-03-01T01:18:09;0.30;99.90
11126;DHT22;5617;54.046;10.676;2023-03-01T01:20:17;0.30;99.90
11126;DHT22;5617;54.046;10.676;2023-03-01T01:22:25;0.30;99.90
11126;DHT22;5617;54.046;10.676;2023-03-01T01:24:35;0.30;99.90
11126;DHT22;5617;54.046;10.676;2023-03-01T01:26:45;0.30;99.90
11126;DHT22;5617;54.046;10.676;2023-03-01T01:28:56;0.30;99.90
11126;DHT22;5617;54.046;10.676;2023-03-01T01:31:05;0.30;99.90
11126;DHT22;5617;54.046;10.676;2023-03-01T01:33:13;0.30;99.90
11126;DHT22;5617;54.046;10.676;2023-03-01T01:35:20;0.30;99.90
11126;DHT22;5617;54.046;10.676;2023-03-01T01:37:28;0.30;99.90
11126;DHT22;5617;54.046;10.676;2023-03-01T01:39:38;0.30;99.90
11126;DHT22;5617;54.046;10.676;2023-03-01T01:41:46;0.30;99.90
11126;DHT22;5617;54.046;10.676;2023-03-01T01:44:13;0.30;99.90
11126;DHT22;5617;54.046;10.676;2023-03-01T01:46:28;0.30;99.90
11126;DHT22;5617;54.046;10.676;2023-03-01T01:48:40;0.30;99.90
11126;DHT22;5617;54.046;10.676;2023-03-01T01:50:54;0.30;99.90
11126;DHT22;5617;54.046;10.676;2023-03-01T01:53:06;0.20;99.90
11126;DHT22;5617;54.046;10.676;2023-03-01T01:55:17;0.20;99.90
11126;DHT22;5617;54.046;10.676;2023-03-01T01:57:32;0.20;99.90
11126;DHT22;5617;54.046;10.676;2023-03-01T01:59:43;0.20;99.90
11126;DHT22;5617;54.046;10.676;2023-03-01T02:01:54;0.20;99.90
11126;DHT22;5617;54.046;10.676;2023-03-01T02:04:02;0.20;99.90
11126;DHT22;5617;54.046;10.676;2023-03-01T02:06:15;0.20;99.90
11126;DHT22;5617;54.046;10.676;2023-03-01T02:08:27;0.10;99.90
11126;DHT22;5617;54.046;10.676;2023-03-01T02:10:37;0.10;99.90
11126;DHT22;5617;54.046;10.676;2023-03-01T02:12:47;0.10;99.90
11126;DHT22;5617;54.046;10.676;2023-03-01T02:14:55;0.10;99.90
11126;DHT22;5617;54.046;10.676;2023-03-01T02:17:04;0.10;99.90
11126;DHT22;5617;54.046;10.676;2023-03-01T02:19:26;0.10;99.90
11126;DHT22;5617;54.046;10.676;2023-03-01T02:21:44;0.00;99.90
11126;DHT22;5617;54.046;10.676;2023-03-01T02:23:53;0.00;99.90
11126;DHT22;5617;54.046;10.676;2023-03-01T02:26:07;0.00;99.90
11126;DHT22;5617;54.046;10.676;2023-03-01T02:28:25;0.00;99.90
11126;DHT22;5617;54.046;10.676;2023-03-01T02:30:33;0.00;99.90
11126;DHT22;5617;54.046;10.676;2023-03-01T02:32:42;-0.10;99.90
11126;DHT22;5617;54.046;10.676;2023-03-01T02:34:49;-0.10;99.90
11126;DHT22;5617;54.046;10.676;2023-03-01T02:37:00;-0.20;99.90
11126;DHT22;5617;54.046;10.676;2023-03-01T02:39:13;-0.20;99.90
11126;DHT22;5617;54.046;10.676;2023-03-01T02:41:25;-0.20;99.90
11126;DHT22;5617;54.046;10.676;2023-03-01T02:43:36;-0.20;99.90
11126;DHT22;5617;54.046;10.676;2023-03-01T02:45:48;-0.20;99.90
11126;DHT22;5617;54.046;10.676;2023-03-01T02:47:57;-0.20;99.90
11126;DHT22;5617;54.046;10.676;2023-03-01T02:50:18;-0.20;99.90
11126;DHT22;5617;54.046;10.676;2023-03-01T02:52:37;-0.10;99.90
11126;DHT22;5617;54.046;10.676;2023-03-01T02:54:48;-0.20;99.90
11126;DHT22;5617;54.046;10.676;2023-03-01T02:56:56;-0.10;99.90
11126;DHT22;5617;54.046;10.676;2023-03-01T02:59:05;0.00;99.90
11126;DHT22;5617;54.046;10.676;2023-03-01T03:01:13;-0.10;99.90
11126;DHT22;5617;54.046;10.676;2023-03-01T03:03:22;-0.10;99.90
11126;DHT22;5617;54.046;10.676;2023-03-01T03:05:31;-0.10;99.90
11126;DHT22;5617;54.046;10.676;2023-03-01T03:07:41;-0.10;99.90
11126;DHT22;5617;54.046;10.676;2023-03-01T03:09:48;-0.10;99.90
11126;DHT22;5617;54.046;10.676;2023-03-01T03:11:56;-0.10;99.90
11126;DHT22;5617;54.046;10.676;2023-03-01T03:14:05;-0.10;99.90
11126;DHT22;5617;54.046;10.676;2023-03-01T03:16:19;-0.10;99.90
11126;DHT22;5617;54.046;10.676;2023-03-01T03:18:26;-0.10;99.90
11126;DHT22;5617;54.046;10.676;2023-03-01T03:20:34;-0.10;99.90
11126;DHT22;5617;54.046;10.676;2023-03-01T03:22:44;-0.10;99.90
11126;DHT22;5617;54.046;10.676;2023-03-01T03:24:52;-0.20;99.90
11126;DHT22;5617;54.046;10.676;2023-03-01T03:26:59;-0.20;99.90
11126;DHT22;5617;54.046;10.676;2023-03-01T03:29:08;-0.20;99.90
11126;DHT22;5617;54.046;10.676;2023-03-01T03:31:15;-0.20;99.90
11126;DHT22;5617;54.046;10.676;2023-03-01T03:33:23;-0.10;99.90
11126;DHT22;5617;54.046;10.676;2023-03-01T03:35:33;-0.10;99.90
11126;DHT22;5617;54.046;10.676;2023-03-01T03:37:41;-0.10;99.90
11126;DHT22;5617;54.046;10.676;2023-03-01T03:40:08;-0.10;99.90
11126;DHT22;5617;54.046;10.676;2023-03-01T03:42:20;-0.10;99.90
11126;DHT22;5617;54.046;10.676;2023-03-01T03:44:30;-0.10;99.90
11126;DHT22;5617;54.046;10.676;2023-03-01T03:46:37;0.00;99.90
11126;DHT22;5617;54.046;10.676;2023-03-01T03:48:45;0.00;99.90
11126;DHT22;5617;54.046;10.676;2023-03-01T03:50:54;0.00;99.90
11126;DHT22;5617;54.046;10.676;2023-03-01T03:53:04;0.00;99.90
11126;DHT22;5617;54.046;10.676;2023-03-01T03:55:12;0.00;99.90
11126;DHT22;5617;54.046;10.676;2023-03-01T03:57:19;0.00;99.90
11126;DHT22;5617;54.046;10.676;2023-03-01T03:59:27;0.10;99.90
11126;DHT22;5617;54.046;10.676;2023-03-01T04:01:36;0.10;99.90
11126;DHT22;5617;54.046;10.676;2023-03-01T04:03:44;0.10;99.90
11126;DHT22;5617;54.046;10.676;2023-03-01T04:05:53;0.10;99.90
11126;DHT22;5617;54.046;10.676;2023-03-01T04:08:00;0.00;99.90
11126;DHT22;5617;54.046;10.676;2023-03-01T04:10:15;0.00;99.90
11126;DHT22;5617;54.046;10.676;2023-03-01T04:12:23;0.00;99.90
11126;DHT22;5617;54.046;10.676;2023-03-01T04:14:30;0.00;99.90
11126;DHT22;5617;54.046;10.676;2023-03-01T04:16:39;0.00;99.90
11126;DHT22;5617;54.046;10.676;2023-03-01T04:18:47;0.00;99.90
11126;DHT22;5617;54.046;10.676;2023-03-01T04:20:54;0.00;99.90
11126;DHT22;5617;54.046;10.676;2023-03-01T04:23:06;0.00;99.90
11126;DHT22;5617;54.046;10.676;2023-03-01T04:25:22;0.00;99.90
11126;DHT22;5617;54.046;10.676;2023-03-01T04:27:29;0.00;99.90
11126;DHT22;5617;54.046;10.676;2023-03-01T04:29:37;-0.10;99.90
11126;DHT22;5617;54.046;10.676;2023-03-01T04:31:47;-0.10;99.90
11126;DHT22;5617;54.046;10.676;2023-03-01T04:33:55;-0.10;99.90
11126;DHT22;5617;54.046;10.676;2023-03-01T04:36:03;-0.10;99.90
11126;DHT22;5617;54.046;10.676;2023-03-01T04:38:11;-0.10;99.90
11126;DHT22;5617;54.046;10.676;2023-03-01T04:40:19;-0.10;99.90
11126;DHT22;5617;54.046;10.676;2023-03-01T04:42:27;-0.10;99.90
11126;DHT22;5617;54.046;10.676;2023-03-01T04:44:35;-0.10;99.90
11126;DHT22;5617;54.046;10.676;2023-03-01T04:46:42;-0.10;99.90
11126;DHT22;5617;54.046;10.676;2023-03-01T04:48:51;-0.10;99.90
11126;DHT22;5617;54.046;10.676;2023-03-01T04:50:59;-0.10;99.90
11126;DHT22;5617;54.046;10.676;2023-03-01T04:53:07;-0.10;99.90
11126;DHT22;5617;54.046;10.676;2023-03-01T04:55:14;-0.10;99.90
11126;DHT22;5617;54.046;10.676;2023-03-01T04:57:22;-0.10;99.90
11126;DHT22;5617;54.046;10.676;2023-03-01T04:59:29;-0.10;99.90
11126;DHT22;5617;54.046;10.676;2023-03-01T05:01:37;-0.10;99.90
11126;DHT22;5617;54.046;10.676;2023-03-01T05:03:46;-0.10;99.90
11126;DHT22;5617;54.046;10.676;2023-03-01T05:05:58;-0.10;99.90
11126;DHT22;5617;54.046;10.676;2023-03-01T05:08:08;-0.10;99.90
11126;DHT22;5617;54.046;10.676;2023-03-01T05:10:24;-0.10;99.90
11126;DHT22;5617;54.046;10.676;2023-03-01T05:12:31;-0.20;99.90
11126;DHT22;5617;54.046;10.676;2023-03-01T05:14:39;-0.20;99.90
11126;DHT22;5617;54.046;10.676;2023-03-01T05:16:46;-0.20;99.90
11126;DHT22;5617;54.046;10.676;2023-03-01T05:18:54;-0.30;99.90
11126;DHT22;5617;54.046;10.676;2023-03-01T05:21:06;-0.40;99.90
11126;DHT22;5617;54.046;10.676;2023-03-01T05:23:14;-0.40;99.90
11126;DHT22;5617;54.046;10.676;2023-03-01T05:25:21;-0.40;99.90
11126;DHT22;5617;54.046;10.676;2023-03-01T05:27:29;-0.40;99.90
11126;DHT22;5617;54.046;10.676;2023-03-01T05:29:37;-0.40;99.90
11126;DHT22;5617;54.046;10.676;2023-03-01T05:31:45;-0.50;99.90
11126;DHT22;5617;54.046;10.676;2023-03-01T05:33:53;-0.50;99.90
11126;DHT22;5617;54.046;10.676;2023-03-01T05:36:05;-0.50;99.90
11126;DHT22;5617;54.046;10.676;2023-03-01T05:38:15;-0.50;99.90
11126;DHT22;5617;54.046;10.676;2023-03-01T05:40:24;-0.50;99.90
11126;DHT22;5617;54.046;10.676;2023-03-01T05:42:32;-0.50;99.90
11126;DHT22;5617;54.046;10.676;2023-03-01T05:44:39;-0.50;99.90
11126;DHT22;5617;54.046;10.676;2023-03-01T05:46:47;-0.50;99.90
11126;DHT22;5617;54.046;10.676;2023-03-01T05:48:56;-0.50;99.90
11126;DHT22;5617;54.046;10.676;2023-03-01T05:51:03;-0.50;99.90
11126;DHT22;5617;54.046;10.676;2023-03-01T05:53:13;-0.50;99.90
11126;DHT22;5617;54.046;10.676;2023-03-01T05:55:23;-0.50;99.90
11126;DHT22;5617;54.046;10.676;2023-03-01T05:57:31;-0.50;99.90
11126;DHT22;5617;54.046;10.676;2023-03-01T05:59:38;-0.50;99.90
11126;DHT22;5617;54.046;10.676;2023-03-01T06:01:46;-0.50;99.90
11126;DHT22;5617;54.046;10.676;2023-03-01T06:03:54;-0.50;99.90
11126;DHT22;5617;54.046;10.676;2023-03-01T06:06:02;-0.50;99.90
11126;DHT22;5617;54.046;10.676;2023-03-01T06:08:10;-0.50;99.90
11126;DHT22;5617;54.046;10.676;2023-03-01T06:10:19;-0.50;99.90
11126;DHT22;5617;54.046;10.676;2023-03-01T06:12:31;-0.50;99.90
11126;DHT22;5617;54.046;10.676;2023-03-01T06:14:39;-0.50;99.90
11126;DHT22;5617;54.046;10.676;2023-03-01T06:16:46;-0.40;99.90
11126;DHT22;5617;54.046;10.676;2023-03-01T06:18:54;-0.30;99.90
11126;DHT22;5617;54.046;10.676;2023-03-01T06:21:01;-0.40;99.90
11126;DHT22;5617;54.046;10.676;2023-03-01T06:23:09;-0.40;99.90
11126;DHT22;5617;54.046;10.676;2023-03-01T06:25:19;-0.40;99.90
11126;DHT22;5617;54.046;10.676;2023-03-01T06:27:27;-0.40;99.90
11126;DHT22;5617;54.046;10.676;2023-03-01T06:29:36;-0.40;99.90
11126;DHT22;5617;54.046;10.676;2023-03-01T06:31:43;-0.30;99.90
11126;DHT22;5617;54.046;10.676;2023-03-01T06:33:52;-0.30;99.90
11126;DHT22;5617;54.046;10.676;2023-03-01T06:35:59;-0.30;99.90
11126;DHT22;5617;54.046;10.676;2023-03-01T06:38:07;-0.30;99.90
11126;DHT22;5617;54.046;10.676;2023-03-01T06:40:15;-0.30;99.90
11126;DHT22;5617;54.046;10.676;2023-03-01T06:42:23;-0.30;99.90
11126;DHT22;5617;54.046;10.676;2023-03-01T06:44:31;-0.30;99.90
11126;DHT22;5617;54.046;10.676;2023-03-01T06:46:40;-0.20;99.90
11126;DHT22;5617;54.046;10.676;2023-03-01T06:48:47;-0.20;99.90
11126;DHT22;5617;54.046;10.676;2023-03-01T06:50:58;-0.20;99.90
11126;DHT22;5617;54.046;10.676;2023-03-01T06:53:05;-0.10;99.90
11126;DHT22;5617;54.046;10.676;2023-03-01T06:55:13;-0.10;99.90
11126;DHT22;5617;54.046;10.676;2023-03-01T06:57:21;-0.20;99.90
11126;DHT22;5617;54.046;10.676;2023-03-01T06:59:29;-0.20;99.90
11126;DHT22;5617;54.046;10.676;2023-03-01T07:01:37;-0.20;99.90
11126;DHT22;5617;54.046;10.676;2023-03-01T07:03:47;-0.20;99.90
11126;DHT22;5617;54.046;10.676;2023-03-01T07:05:54;-0.20;99.90
11126;DHT22;5617;54.046;10.676;2023-03-01T07:08:02;-0.20;99.90
11126;DHT22;5617;54.046;10.676;2023-03-01T07:10:11;-0.20;99.90
11126;DHT22;5617;54.046;10.676;2023-03-01T07:12:19;-0.10;99.90
11126;DHT22;5617;54.046;10.676;2023-03-01T07:14:27;-0.20;99.90
11126;DHT22;5617;54.046;10.676;2023-03-01T07:16:34;-0.20;99.90
11126;DHT22;5617;54.046;10.676;2023-03-01T07:18:42;-0.20;99.90
11126;DHT22;5617;54.046;10.676;2023-03-01T07:20:51;-0.30;99.90
11126;DHT22;5617;54.046;10.676;2023-03-01T07:22:59;-0.20;99.90
11126;DHT22;5617;54.046;10.676;2023-03-01T07:25:07;-0.20;99.90
11126;DHT22;5617;54.046;10.676;2023-03-01T07:27:14;-0.20;99.90
11126;DHT22;5617;54.046;10.676;2023-03-01T07:29:22;-0.10;99.90
11126;DHT22;5617;54.046;10.676;2023-03-01T07:31:29;-0.10;99.90
11126;DHT22;5617;54.046;10.676;2023-03-01T07:33:37;-0.10;99.90
11126;DHT22;5617;54.046;10.676;2023-03-01T07:35:45;-0.10;99.90
11126;DHT22;5617;54.046;10.676;2023-03-01T07:37:54;0.00;99.90
11126;DHT22;5617;54.046;10.676;2023-03-01T07:40:02;0.00;99.90
11126;DHT22;5617;54.046;10.676;2023-03-01T07:42:10;0.00;99.90
11126;DHT22;5617;54.046;10.676;2023-03-01T07:44:17;0.10;99.90
11126;DHT22;5617;54.046;10.676;2023-03-01T07:46:25;0.10;99.90
11126;DHT22;5617;54.046;10.676;2023-03-01T07:48:33;0.20;99.90
11126;DHT22;5617;54.046;10.676;2023-03-01T07:50:41;0.20;99.90
11126;DHT22;5617;54.046;10.676;2023-03-01T07:52:49;0.30;99.90
11126;DHT22;5617;54.046;10.676;2023-03-01T07:54:58;0.30;99.90
11126;DHT22;5617;54.046;10.676;2023-03-01T07:57:06;0.30;99.90
11126;DHT22;5617;54.046;10.676;2023-03-01T07:59:13;0.30;99.90
11126;DHT22;5617;54.046;10.676;2023-03-01T08:01:21;0.30;99.90
11126;DHT22;5617;54.046;10.676;2023-03-01T08:03:30;0.30;99.90
11126;DHT22;5617;54.046;10.676;2023-03-01T08:05:37;0.30;99.90
11126;DHT22;5617;54.046;10.676;2023-03-01T08:07:45;0.30;99.90
11126;DHT22;5617;54.046;10.676;2023-03-01T08:09:52;0.40;99.90
11126;DHT22;5617;54.046;10.676;2023-03-01T08:12:02;0.40;99.90
11126;DHT22;5617;54.046;10.676;2023-03-01T08:14:11;0.50;99.90
11126;DHT22;5617;54.046;10.676;2023-03-01T08:16:18;0.50;99.90
11126;DHT22;5617;54.046;10.676;2023-03-01T08:18:26;0.60;99.90
11126;DHT22;5617;54.046;10.676;2023-03-01T08:20:33;0.70;99.90
11126;DHT22;5617;54.046;10.676;2023-03-01T08:22:41;0.70;99.90
11126;DHT22;5617;54.046;10.676;2023-03-01T08:24:48;0.80;99.90
11126;DHT22;5617;54.046;10.676;2023-03-01T08:26:56;0.80;99.90
11126;DHT22;5617;54.046;10.676;2023-03-01T08:29:05;0.90;99.90
11126;DHT22;5617;54.046;10.676;2023-03-01T08:31:14;0.90;99.90
11126;DHT22;5617;54.046;10.676;2023-03-01T08:33:22;1.10;99.90
11126;DHT22;5617;54.046;10.676;2023-03-01T08:35:29;1.10;99.90
11126;DHT22;5617;54.046;10.676;2023-03-01T08:37:37;1.20;99.90
11126;DHT22;5617;54.046;10.676;2023-03-01T08:39:44;1.20;99.90
11126;DHT22;5617;54.046;10.676;2023-03-01T08:41:52;1.20;99.90
11126;DHT22;5617;54.046;10.676;2023-03-01T08:43:59;1.30;99.90
11126;DHT22;5617;54.046;10.676;2023-03-01T08:46:09;1.30;99.90
11126;DHT22;5617;54.046;10.676;2023-03-01T08:48:16;1.40;99.90
11126;DHT22;5617;54.046;10.676;2023-03-01T08:50:24;1.40;99.90
11126;DHT22;5617;54.046;10.676;2023-03-01T08:52:32;1.50;99.90
11126;DHT22;5617;54.046;10.676;2023-03-01T08:54:41;1.60;99.90
11126;DHT22;5617;54.046;10.676;2023-03-01T08:56:50;1.60;99.90
11126;DHT22;5617;54.046;10.676;2023-03-01T08:58:58;1.60;99.90
11126;DHT22;5617;54.046;10.676;2023-03-01T09:01:11;1.70;99.90
11126;DHT22;5617;54.046;10.676;2023-03-01T09:03:19;1.70;99.90
11126;DHT22;5617;54.046;10.676;2023-03-01T09:05:27;1.70;99.90
11126;DHT22;5617;54.046;10.676;2023-03-01T09:07:34;1.80;99.90
11126;DHT22;5617;54.046;10.676;2023-03-01T09:09:42;1.80;99.90
11126;DHT22;5617;54.046;10.676;2023-03-01T09:11:49;1.90;99.90
11126;DHT22;5617;54.046;10.676;2023-03-01T09:13:57;1.90;99.90
11126;DHT22;5617;54.046;10.676;2023-03-01T09:16:07;2.00;99.90
11126;DHT22;5617;54.046;10.676;2023-03-01T09:18:16;2.00;99.90
11126;DHT22;5617;54.046;10.676;2023-03-01T09:20:24;2.00;99.90
11126;DHT22;5617;54.046;10.676;2023-03-01T09:22:33;2.10;99.90
11126;DHT22;5617;54.046;10.676;2023-03-01T09:24:40;2.20;99.90
11126;DHT22;5617;54.046;10.676;2023-03-01T09:26:53;2.30;99.90
11126;DHT22;5617;54.046;10.676;2023-03-01T09:29:01;2.40;99.90
11126;DHT22;5617;54.046;10.676;2023-03-01T09:31:09;2.40;99.90
11126;DHT22;5617;54.046;10.676;2023-03-01T09:33:20;2.40;99.90
11126;DHT22;5617;54.046;10.676;2023-03-01T09:35:27;2.40;99.90
11126;DHT22;5617;54.046;10.676;2023-03-01T09:37:36;2.40;99.90
11126;DHT22;5617;54.046;10.676;2023-03-01T09:39:44;2.40;99.90
11126;DHT22;5617;54.046;10.676;2023-03-01T09:42:00;2.40;99.90
11126;DHT22;5617;54.046;10.676;2023-03-01T09:44:16;2.50;99.90
11126;DHT22;5617;54.046;10.676;2023-03-01T09:46:26;2.60;99.90
11126;DHT22;5617;54.046;10.676;2023-03-01T09:48:43;2.60;99.90
11126;DHT22;5617;54.046;10.676;2023-03-01T09:50:52;2.60;99.90
11126;DHT22;5617;54.046;10.676;2023-03-01T09:53:02;2.60;99.90
11126;DHT22;5617;54.046;10.676;2023-03-01T09:55:13;2.70;99.90
11126;DHT22;5617;54.046;10.676;2023-03-01T09:57:26;2.80;99.90
11126;DHT22;5617;54.046;10.676;2023-03-01T09:59:49;3.00;99.90
11126;DHT22;5617;54.046;10.676;2023-03-01T10:02:05;3.10;99.90
11126;DHT22;5617;54.046;10.676;2023-03-01T10:04:40;3.20;99.90
11126;DHT22;5617;54.046;10.676;2023-03-01T10:06:55;3.20;99.90
11126;DHT22;5617;54.046;10.676;2023-03-01T10:09:10;3.30;99.90
11126;DHT22;5617;54.046;10.676;2023-03-01T10:11:21;3.20;99.90
11126;DHT22;5617;54.046;10.676;2023-03-01T10:13:37;3.20;99.90
11126;DHT22;5617;54.046;10.676;2023-03-01T10:15:50;3.30;99.90
11126;DHT22;5617;54.046;10.676;2023-03-01T10:18:04;3.40;99.90
11126;DHT22;5617;54.046;10.676;2023-03-01T10:20:20;3.30;99.90
11126;DHT22;5617;54.046;10.676;2023-03-01T10:22:29;3.40;99.90
11126;DHT22;5617;54.046;10.676;2023-03-01T10:24:38;3.50;99.90
11126;DHT22;5617;54.046;10.676;2023-03-01T10:26:51;3.60;99.90
11126;DHT22;5617;54.046;10.676;2023-03-01T10:29:03;3.70;99.90
11126;DHT22;5617;54.046;10.676;2023-03-01T10:31:12;3.80;99.90
11126;DHT22;5617;54.046;10.676;2023-03-01T10:33:23;3.90;99.90
11126;DHT22;5617;54.046;10.676;2023-03-01T10:35:34;3.90;99.90
11126;DHT22;5617;54.046;10.676;2023-03-01T10:37:57;4.00;99.90
11126;DHT22;5617;54.046;10.676;2023-03-01T10:40:07;4.00;99.90
11126;DHT22;5617;54.046;10.676;2023-03-01T10:42:21;4.10;99.90
11126;DHT22;5617;54.046;10.676;2023-03-01T10:44:40;4.20;99.90
11126;DHT22;5617;54.046;10.676;2023-03-01T10:46:59;4.20;99.90
11126;DHT22;5617;54.046;10.676;2023-03-01T10:49:14;4.30;99.90
11126;DHT22;5617;54.046;10.676;2023-03-01T10:51:23;4.40;99.90
11126;DHT22;5617;54.046;10.676;2023-03-01T10:53:34;4.50;99.90
11126;DHT22;5617;54.046;10.676;2023-03-01T10:55:42;4.70;99.90
11126;DHT22;5617;54.046;10.676;2023-03-01T10:58:07;4.70;99.90
11126;DHT22;5617;54.046;10.676;2023-03-01T11:00:24;4.80;99.90
11126;DHT22;5617;54.046;10.676;2023-03-01T11:02:32;4.70;99.90
11126;DHT22;5617;54.046;10.676;2023-03-01T11:04:42;4.70;99.90
11126;DHT22;5617;54.046;10.676;2023-03-01T11:07:04;4.70;99.90
11126;DHT22;5617;54.046;10.676;2023-03-01T11:09:17;4.80;99.90
11126;DHT22;5617;54.046;10.676;2023-03-01T11:11:32;4.70;99.90
11126;DHT22;5617;54.046;10.676;2023-03-01T11:13:50;4.70;99.90
11126;DHT22;5617;54.046;10.676;2023-03-01T11:15:59;4.70;99.90
11126;DHT22;5617;54.046;10.676;2023-03-01T11:18:19;4.70;99.90
11126;DHT22;5617;54.046;10.676;2023-03-01T11:20:29;4.80;99.90
11126;DHT22;5617;54.046;10.676;2023-03-01T11:22:47;4.80;99.90
11126;DHT22;5617;54.046;10.676;2023-03-01T11:24:55;4.90;99.90
11126;DHT22;5617;54.046;10.676;2023-03-01T11:27:08;4.90;99.90
11126;DHT22;5617;54.046;10.676;2023-03-01T11:29:27;4.80;99.90
11126;DHT22;5617;54.046;10.676;2023-03-01T11:31:39;4.70;99.90
11126;DHT22;5617;54.046;10.676;2023-03-01T11:33:51;4.70;99.90
11126;DHT22;5617;54.046;10.676;2023-03-01T11:36:05;4.80;99.90
11126;DHT22;5617;54.046;10.676;2023-03-01T11:38:20;4.90;99.90
11126;DHT22;5617;54.046;10.676;2023-03-01T11:40:32;4.90;99.90
11126;DHT22;5617;54.046;10.676;2023-03-01T11:42:50;4.90;99.90
11126;DHT22;5617;54.046;10.676;2023-03-01T11:45:02;5.00;99.90
11126;DHT22;5617;54.046;10.676;2023-03-01T11:47:24;5.00;99.90
11126;DHT22;5617;54.046;10.676;2023-03-01T11:49:51;5.00;99.90
11126;DHT22;5617;54.046;10.676;2023-03-01T11:52:05;5.00;99.90
11126;DHT22;5617;54.046;10.676;2023-03-01T11:54:29;5.00;99.90
11126;DHT22;5617;54.046;10.676;2023-03-01T11:56:45;4.90;99.90
11126;DHT22;5617;54.046;10.676;2023-03-01T11:59:06;5.00;99.90
11126;DHT22;5617;54.046;10.676;2023-03-01T12:01:25;5.10;99.90
11126;DHT22;5617;54.046;10.676;2023-03-01T12:04:02;5.20;99.90
11126;DHT22;5617;54.046;10.676;2023-03-01T12:06:26;5.20;99.90
11126;DHT22;5617;54.046;10.676;2023-03-01T12:08:39;5.20;99.90
11126;DHT22;5617;54.046;10.676;2023-03-01T12:10:55;5.20;99.90
11126;DHT22;5617;54.046;10.676;2023-03-01T12:13:20;5.20;99.90
11126;DHT22;5617;54.046;10.676;2023-03-01T12:15:43;5.10;99.90
11126;DHT22;5617;54.046;10.676;2023-03-01T12:18:16;5.20;99.90
11126;DHT22;5617;54.046;10.676;2023-03-01T12:20:33;5.40;99.90
11126;DHT22;5617;54.046;10.676;2023-03-01T12:22:54;5.50;99.90
11126;DHT22;5617;54.046;10.676;2023-03-01T12:25:20;5.50;99.90
11126;DHT22;5617;54.046;10.676;2023-03-01T12:27:46;5.40;99.90
11126;DHT22;5617;54.046;10.676;2023-03-01T12:30:15;5.30;99.90
11126;DHT22;5617;54.046;10.676;2023-03-01T12:32:35;5.40;99.90
11126;DHT22;5617;54.046;10.676;2023-03-01T12:35:03;5.70;99.90
11126;DHT22;5617;54.046;10.676;2023-03-01T12:37:22;5.90;99.90
11126;DHT22;5617;54.046;10.676;2023-03-01T12:39:42;6.20;99.90
11126;DHT22;5617;54.046;10.676;2023-03-01T12:42:00;6.30;99.90
11126;DHT22;5617;54.046;10.676;2023-03-01T12:44:21;6.40;99.90
11126;DHT22;5617;54.046;10.676;2023-03-01T12:46:39;6.40;99.90
11126;DHT22;5617;54.046;10.676;2023-03-01T12:48:59;6.50;99.90
11126;DHT22;5617;54.046;10.676;2023-03-01T12:51:12;6.60;99.90
11126;DHT22;5617;54.046;10.676;2023-03-01T12:53:24;6.60;99.90
11126;DHT22;5617;54.046;10.676;2023-03-01T12:55:35;6.60;99.90
11126;DHT22;5617;54.046;10.676;2023-03-01T12:57:48;6.60;99.90
11126;DHT22;5617;54.046;10.676;2023-03-01T13:00:09;6.50;99.90
11126;DHT22;5617;54.046;10.676;2023-03-01T13:02:24;6.60;99.90
11126;DHT22;5617;54.046;10.676;2023-03-01T13:04:51;6.60;99.90
11126;DHT22;5617;54.046;10.676;2023-03-01T13:07:13;6.60;99.90
11126;DHT22;5617;54.046;10.676;2023-03-01T13:09:27;6.40;99.90
11126;DHT22;5617;54.046;10.676;2023-03-01T13:11:41;6.40;99.90
11126;DHT22;5617;54.046;10.676;2023-03-01T13:13:49;6.40;99.90
11126;DHT22;5617;54.046;10.676;2023-03-01T13:16:21;6.50;99.90
11126;DHT22;5617;54.046;10.676;2023-03-01T13:18:31;6.50;99.90
11126;DHT22;5617;54.046;10.676;2023-03-01T13:20:46;6.50;99.90
11126;DHT22;5617;54.046;10.676;2023-03-01T13:23:07;6.60;99.90
11126;DHT22;5617;54.046;10.676;2023-03-01T13:25:17;6.60;99.90
11126;DHT22;5617;54.046;10.676;2023-03-01T13:27:25;6.60;99.90
11126;DHT22;5617;54.046;10.676;2023-03-01T13:29:44;6.70;99.90
11126;DHT22;5617;54.046;10.676;2023-03-01T13:31:57;7.00;99.90
11126;DHT22;5617;54.046;10.676;2023-03-01T13:34:42;7.10;99.90
11126;DHT22;5617;54.046;10.676;2023-03-01T13:36:50;7.10;99.90
11126;DHT22;5617;54.046;10.676;2023-03-01T13:38:59;7.30;99.90
11126;DHT22;5617;54.046;10.676;2023-03-01T13:41:07;7.40;99.90
11126;DHT22;5617;54.046;10.676;2023-03-01T13:43:30;7.50;99.90
11126;DHT22;5617;54.046;10.676;2023-03-01T13:45:39;7.50;99.90
11126;DHT22;5617;54.046;10.676;2023-03-01T13:47:52;7.60;99.90
11126;DHT22;5617;54.046;10.676;2023-03-01T13:50:03;7.80;99.90
11126;DHT22;5617;54.046;10.676;2023-03-01T13:52:40;8.00;99.90
11126;DHT22;5617;54.046;10.676;2023-03-01T13:54:48;8.20;99.90
11126;DHT22;5617;54.046;10.676;2023-03-01T13:56:59;8.40;99.90
11126;DHT22;5617;54.046;10.676;2023-03-01T13:59:15;8.60;99.90